createdAt,value
2022-10-05T00:01:38.427Z,98177.75
2022-10-05T00:04:21.952Z,98179.00
2022-10-05T00:07:08.830Z,98183.22
2022-10-05T00:09:36.711Z,98180.03
2022-10-05T00:12:19.825Z,98172.28
2022-10-05T00:14:52.449Z,98171.88
2022-10-05T00:17:30.616Z,98168.88
2022-10-05T00:19:57.860Z,98167.84
2022-10-05T00:22:34.511Z,98170.78
2022-10-05T00:25:11.201Z,98157.50
2022-10-05T00:27:39.038Z,98166.75
2022-10-05T00:30:17.708Z,98165.81
2022-10-05T00:32:45.783Z,98166.25
2022-10-05T00:35:15.819Z,98170.91
2022-10-05T00:37:43.789Z,98166.25
2022-10-05T00:40:43.699Z,98155.97
2022-10-05T00:43:25.086Z,98164.06
2022-10-05T00:46:07.957Z,98160.06
2022-10-05T00:49:33.268Z,98168.56
2022-10-05T00:52:20.308Z,98164.00
2022-10-05T00:55:11.496Z,98157.94
2022-10-05T00:58:13.667Z,98159.38
2022-10-05T01:01:12.847Z,98158.00
2022-10-05T01:04:20.583Z,98150.06
2022-10-05T01:07:26.330Z,98144.94
2022-10-05T01:10:26.055Z,98136.88
2022-10-05T01:13:22.255Z,98137.22
2022-10-05T01:16:02.616Z,98131.75
2022-10-05T01:19:00.326Z,98128.13
2022-10-05T01:21:32.391Z,98126.72
2022-10-05T01:24:20.461Z,98123.66
2022-10-05T01:27:18.515Z,98124.47
2022-10-05T01:30:11.207Z,98118.22
2022-10-05T01:33:12.815Z,98119.03
2022-10-05T01:36:17.276Z,98118.56
2022-10-05T01:39:13.245Z,98112.97
2022-10-05T01:42:05.464Z,98113.31
2022-10-05T01:45:20.866Z,98110.75
2022-10-05T01:47:58.128Z,98108.03
2022-10-05T01:50:52.487Z,98109.00
2022-10-05T01:53:44.399Z,98116.28
2022-10-05T01:56:54.548Z,98112.13
2022-10-05T01:59:45.632Z,98114.34
2022-10-05T02:02:19.234Z,98123.44
2022-10-05T02:05:04.504Z,98113.03
2022-10-05T02:07:59.449Z,98116.69
2022-10-05T02:10:36.628Z,98114.19
2022-10-05T02:13:16.268Z,98106.91
2022-10-05T02:15:56.778Z,98108.59
2022-10-05T02:18:32.774Z,98096.13
2022-10-05T02:21:05.643Z,98094.88
2022-10-05T02:23:39.762Z,98088.03
2022-10-05T02:26:09.974Z,98078.69
2022-10-05T02:28:58.925Z,98080.13
2022-10-05T02:31:38.027Z,98076.63
2022-10-05T02:34:41.722Z,98067.50
2022-10-05T02:37:32.328Z,98061.44
2022-10-05T02:40:51.567Z,98055.72
2022-10-05T02:43:26.668Z,98046.03
2022-10-05T02:46:31.105Z,98045.69
2022-10-05T02:49:08.686Z,98054.91
2022-10-05T02:52:08.243Z,98055.00
2022-10-05T02:55:19.333Z,98053.16
2022-10-05T02:58:15.151Z,98061.50
2022-10-05T03:01:03.419Z,98061.09
2022-10-05T03:03:41.904Z,98052.59
2022-10-05T03:06:25.955Z,98049.97
2022-10-05T03:09:04.620Z,98054.19
2022-10-05T03:11:51.494Z,98058.72
2022-10-05T03:15:06.273Z,98060.41
2022-10-05T03:17:56.568Z,98070.16
2022-10-05T03:20:53.194Z,98063.50
2022-10-05T03:24:02.363Z,98063.66
2022-10-05T03:27:01.143Z,98080.34
2022-10-05T03:29:48.080Z,98077.78
2022-10-05T03:32:48.762Z,98080.69
2022-10-05T03:35:30.861Z,98084.50
2022-10-05T03:38:21.433Z,98097.22
2022-10-05T03:41:17.481Z,98106.78
2022-10-05T03:44:11.815Z,98107.81
2022-10-05T03:46:55.017Z,98112.84
2022-10-05T03:49:50.740Z,98121.19
2022-10-05T03:52:50.584Z,98115.28
2022-10-05T03:55:55.491Z,98115.50
2022-10-05T03:58:34.709Z,98125.72
2022-10-05T04:01:10.489Z,98130.03
2022-10-05T04:03:54.775Z,98133.25
2022-10-05T04:06:35.546Z,98134.28
2022-10-05T04:09:15.410Z,98132.69
2022-10-05T04:11:55.680Z,98130.97
2022-10-05T04:14:31.197Z,98128.19
2022-10-05T04:17:05.514Z,98116.94
2022-10-05T04:19:57.161Z,98107.25
2022-10-05T04:22:40.704Z,98102.72
2022-10-05T04:25:32.173Z,98109.63
2022-10-05T04:28:17.912Z,98106.91
2022-10-05T04:30:51.429Z,98098.16
2022-10-05T04:33:19.137Z,98097.25
2022-10-05T04:36:22.204Z,98089.94
2022-10-05T04:39:32.141Z,98095.78
2022-10-05T04:42:31.158Z,98095.38
2022-10-05T04:45:22.800Z,98099.41
2022-10-05T04:48:17.133Z,98093.00
2022-10-05T04:51:11.763Z,98096.16
2022-10-05T04:53:57.076Z,98090.03
2022-10-05T04:56:46.121Z,98094.13
2022-10-05T05:00:06.190Z,98092.00
2022-10-05T05:03:31.109Z,98090.19
2022-10-05T05:06:32.779Z,98101.63
2022-10-05T05:09:21.282Z,98097.38
2022-10-05T05:12:33.553Z,98097.16
2022-10-05T05:15:10.629Z,98093.44
2022-10-05T05:18:04.105Z,98107.50
2022-10-05T05:20:37.248Z,98101.47
2022-10-05T05:23:18.699Z,98094.53
2022-10-05T05:26:11.895Z,98094.22
2022-10-05T05:29:05.633Z,98097.00
2022-10-05T05:32:28.384Z,98098.81
2022-10-05T05:35:24.137Z,98090.34
2022-10-05T05:38:31.167Z,98086.84
2022-10-05T05:41:10.336Z,98084.75
2022-10-05T05:44:06.505Z,98084.91
2022-10-05T05:47:04.377Z,98086.22
2022-10-05T05:49:44.318Z,98078.09
2022-10-05T05:52:36.353Z,98076.19
2022-10-05T05:55:22.354Z,98072.56
2022-10-05T05:58:15.652Z,98077.75
2022-10-05T06:01:32.851Z,98082.63
2022-10-05T06:04:35.802Z,98102.44
2022-10-05T06:07:05.350Z,98106.25
2022-10-05T06:09:58.460Z,98102.94
2022-10-05T06:12:47.711Z,98111.66
2022-10-05T06:15:37.462Z,98132.72
2022-10-05T06:18:16.405Z,98150.00
2022-10-05T06:21:46.329Z,98148.13
2022-10-05T06:25:07.968Z,98146.44
2022-10-05T06:27:38.716Z,98141.41
2022-10-05T06:30:15.859Z,98130.81
2022-10-05T06:33:19.417Z,98141.16
2022-10-05T06:36:11.859Z,98119.16
2022-10-05T06:39:06.542Z,98136.03
2022-10-05T06:42:14.855Z,98133.19
2022-10-05T06:45:29.476Z,98122.84
2022-10-05T06:48:31.472Z,98121.00
2022-10-05T06:51:51.333Z,98123.81
2022-10-05T06:55:04.535Z,98121.72
2022-10-05T06:57:58.894Z,98132.84
2022-10-05T07:00:49.367Z,98129.28
2022-10-05T07:03:34.552Z,98120.28
2022-10-05T07:06:28.204Z,98131.41
2022-10-05T07:09:26.372Z,98123.47
2022-10-05T07:12:41.679Z,98131.09
2022-10-05T07:15:24.586Z,98137.69
2022-10-05T07:18:26.973Z,98126.56
2022-10-05T07:21:10.281Z,98131.88
2022-10-05T07:23:46.316Z,98129.13
2022-10-05T07:26:46.251Z,98147.47
2022-10-05T07:29:55.130Z,98140.28
2022-10-05T07:32:28.874Z,98145.66
2022-10-05T07:35:32.629Z,98145.28
2022-10-05T07:38:21.683Z,98158.13
2022-10-05T07:40:58.808Z,98154.38
2022-10-05T07:44:15.597Z,98152.53
2022-10-05T07:47:02.362Z,98149.78
2022-10-05T07:49:50.815Z,98147.25
2022-10-05T07:52:28.286Z,98148.13
2022-10-05T07:55:29.989Z,98140.19
2022-10-05T07:58:05.599Z,98123.38
2022-10-05T08:01:13.087Z,98116.38
2022-10-05T08:04:01.064Z,98104.78
2022-10-05T08:06:41.463Z,98103.69
2022-10-05T08:09:26.336Z,98105.38
2022-10-05T08:12:19.859Z,98105.53
2022-10-05T08:15:21.283Z,98114.31
2022-10-05T08:18:00.578Z,98121.50
2022-10-05T08:20:35.451Z,98124.38
2022-10-05T08:23:25.744Z,98128.84
2022-10-05T08:26:11.755Z,98128.47
2022-10-05T08:29:13.795Z,98130.66
2022-10-05T08:31:47.095Z,98127.34
2022-10-05T08:34:59.342Z,98143.31
2022-10-05T08:37:37.384Z,98142.47
2022-10-05T08:40:21.511Z,98148.09
2022-10-05T08:43:27.504Z,98165.81
2022-10-05T08:46:23.613Z,98152.81
2022-10-05T08:49:24.376Z,98147.16
2022-10-05T08:52:24.504Z,98162.97
2022-10-05T08:54:51.609Z,98154.06
2022-10-05T08:57:59.897Z,98146.56
2022-10-05T09:00:56.549Z,98147.75
2022-10-05T09:03:47.129Z,98139.34
2022-10-05T09:06:48.243Z,98149.31
2022-10-05T09:09:24.026Z,98152.44
2022-10-05T09:12:27.546Z,98145.91
2022-10-05T09:15:26.502Z,98142.31
2022-10-05T09:18:27.026Z,98137.38
2022-10-05T09:21:18.861Z,98146.69
2022-10-05T09:24:01.342Z,98137.88
2022-10-05T09:27:07.749Z,98143.94
2022-10-05T09:30:02.899Z,98141.44
2022-10-05T09:33:17.801Z,98137.75
2022-10-05T09:36:19.934Z,98132.19
2022-10-05T09:39:15.663Z,98132.03
2022-10-05T09:41:45.855Z,98130.75
2022-10-05T09:44:31.582Z,98123.38
2022-10-05T09:47:36.278Z,98127.56
2022-10-05T09:50:28.155Z,98119.91
2022-10-05T09:53:01.470Z,98124.69
2022-10-05T09:56:05.292Z,98128.50
2022-10-05T09:58:55.206Z,98120.78
2022-10-05T10:01:51.959Z,98126.28
2022-10-05T10:04:50.603Z,98124.78
2022-10-05T10:07:45.205Z,98123.34
2022-10-05T10:11:11.591Z,98110.41
2022-10-05T10:14:35.921Z,98104.97
2022-10-05T10:17:47.549Z,98112.53
2022-10-05T10:20:56.367Z,98107.78
2022-10-05T10:24:15.931Z,98101.03
2022-10-05T10:27:27.620Z,98110.72
2022-10-05T10:30:26.303Z,98112.19
2022-10-05T10:33:25.640Z,98106.78
2022-10-05T10:36:44.014Z,98125.06
2022-10-05T10:40:10.194Z,98119.81
2022-10-05T10:42:56.338Z,98124.91
2022-10-05T10:45:56.765Z,98131.41
2022-10-05T10:48:29.368Z,98139.59
2022-10-05T10:51:48.703Z,98140.06
2022-10-05T10:55:02.743Z,98135.97
2022-10-05T10:58:06.571Z,98140.09
2022-10-05T11:01:05.501Z,98144.50
2022-10-05T11:04:20.205Z,98145.38
2022-10-05T11:07:42.909Z,98144.78
2022-10-05T11:10:26.079Z,98145.78
2022-10-05T11:13:26.713Z,98145.47
2022-10-05T11:16:30.955Z,98157.81
2022-10-05T11:19:35.136Z,98147.06
2022-10-05T11:22:44.761Z,98142.00
2022-10-05T11:25:31.214Z,98142.44
2022-10-05T11:28:01.390Z,98139.97
2022-10-05T11:31:05.736Z,98141.44
2022-10-05T11:34:13.046Z,98136.50
2022-10-05T11:37:38.314Z,98137.78
2022-10-05T11:40:50.476Z,98140.94
2022-10-05T11:43:47.611Z,98135.72
2022-10-05T11:47:08.380Z,98128.53
2022-10-05T11:50:15.850Z,98134.75
2022-10-05T11:53:06.122Z,98129.72
2022-10-05T11:55:50.208Z,98123.28
2022-10-05T11:58:46.210Z,98117.47
2022-10-05T12:01:27.776Z,98118.19
2022-10-05T12:04:36.232Z,98111.31
2022-10-05T12:07:27.615Z,98104.44
2022-10-05T12:11:05.697Z,98114.84
2022-10-05T12:13:48.411Z,98116.84
2022-10-05T12:16:21.220Z,98117.31
2022-10-05T12:19:13.520Z,98119.53
2022-10-05T12:22:04.174Z,98105.25
2022-10-05T12:24:37.197Z,98107.94
2022-10-05T12:27:20.556Z,98111.56
2022-10-05T12:30:29.571Z,98116.06
2022-10-05T12:33:03.907Z,98110.22
2022-10-05T12:36:01.418Z,98101.34
2022-10-05T12:39:06.194Z,98104.13
2022-10-05T12:41:45.268Z,98106.00
2022-10-05T12:44:37.056Z,98100.69
2022-10-05T12:47:33.805Z,98087.31
2022-10-05T12:50:33.297Z,98089.19
2022-10-05T12:53:29.213Z,98084.69
2022-10-05T12:56:21.560Z,98081.19
2022-10-05T12:59:11.018Z,98073.38
2022-10-05T13:01:58.691Z,98072.13
2022-10-05T13:05:02.667Z,98072.44
2022-10-05T13:07:47.962Z,98060.16
2022-10-05T13:10:50.735Z,98062.41
2022-10-05T13:13:34.356Z,98053.88
2022-10-05T13:16:22.056Z,98056.44
2022-10-05T13:19:21.594Z,98047.13
2022-10-05T13:22:27.079Z,98043.97
2022-10-05T13:25:13.956Z,98040.16
2022-10-05T13:28:08.430Z,98036.22
2022-10-05T13:30:38.672Z,98032.75
2022-10-05T13:33:24.847Z,98031.00
2022-10-05T13:36:16.250Z,98028.16
2022-10-05T13:38:57.871Z,98034.16
2022-10-05T13:41:36.821Z,98042.84
2022-10-05T13:44:43.274Z,98041.75
2022-10-05T13:47:39.760Z,98039.38
2022-10-05T13:50:19.417Z,98034.16
2022-10-05T13:53:04.606Z,98028.31
2022-10-05T13:56:13.015Z,98025.13
2022-10-05T13:58:50.130Z,98020.56
2022-10-05T14:01:41.577Z,98021.63
2022-10-05T14:04:24.745Z,98021.13
2022-10-05T14:06:52.790Z,98021.94
2022-10-05T14:09:34.466Z,98025.06
2022-10-05T14:12:04.761Z,98022.63
2022-10-05T14:14:43.081Z,98020.50
2022-10-05T14:17:40.290Z,98030.16
2022-10-05T14:20:28.879Z,98028.03
2022-10-05T14:23:03.208Z,98015.47
2022-10-05T14:25:31.511Z,98023.59
2022-10-05T14:28:33.834Z,98020.81
2022-10-05T14:31:37.235Z,98016.47
2022-10-05T14:34:34.839Z,98011.75
2022-10-05T14:37:22.846Z,98014.56
2022-10-05T14:39:54.976Z,98012.97
2022-10-05T14:42:29.195Z,98008.03
2022-10-05T14:45:22.621Z,98007.47
2022-10-05T14:47:53.102Z,98005.44
2022-10-05T14:50:29.888Z,98003.94
2022-10-05T14:53:14.164Z,98002.94
2022-10-05T14:55:56.425Z,98007.75
2022-10-05T14:58:58.604Z,97995.41
2022-10-05T15:01:36.967Z,98005.88
2022-10-05T15:04:32.173Z,98010.34
2022-10-05T15:07:25.344Z,97995.13
2022-10-05T15:10:36.394Z,97990.81
2022-10-05T15:13:21.969Z,97989.84
2022-10-05T15:15:57.879Z,97990.38
2022-10-05T15:18:32.151Z,97982.25
2022-10-05T15:21:24.180Z,97984.84
2022-10-05T15:24:04.896Z,97982.72
2022-10-05T15:26:57.951Z,97982.34
2022-10-05T15:29:52.815Z,97971.09
2022-10-05T15:32:42.878Z,97976.16
2022-10-05T15:35:37.184Z,97979.97
2022-10-05T15:38:32.614Z,97979.00
2022-10-05T15:41:22.970Z,97968.22
2022-10-05T15:44:14.861Z,97968.75
2022-10-05T15:46:56.542Z,97961.91
2022-10-05T15:49:52.711Z,97963.31
2022-10-05T15:52:55.459Z,97963.22
2022-10-05T15:55:27.504Z,97963.66
2022-10-05T15:58:40.980Z,97969.91
2022-10-05T16:01:16.381Z,97963.66
2022-10-05T16:04:11.165Z,97964.28
2022-10-05T16:07:21.617Z,97955.41
2022-10-05T16:09:59.739Z,97951.53
2022-10-05T16:13:11.791Z,97945.19
2022-10-05T16:15:46.505Z,97940.16
2022-10-05T16:19:01.166Z,97950.03
2022-10-05T16:22:06.696Z,97948.19
2022-10-05T16:25:04.660Z,97951.94
2022-10-05T16:27:37.148Z,97946.94
2022-10-05T16:30:10.506Z,97956.28
2022-10-05T16:33:15.716Z,97952.25
2022-10-05T16:35:50.331Z,97955.84
2022-10-05T16:38:38.866Z,97958.25
2022-10-05T16:41:46.108Z,97953.91
2022-10-05T16:44:31.424Z,97953.19
2022-10-05T16:47:27.634Z,97950.53
2022-10-05T16:50:21.874Z,97955.38
2022-10-05T16:53:15.770Z,97951.69
2022-10-05T16:55:49.284Z,97945.81
2022-10-05T16:58:47.546Z,97954.38
2022-10-05T17:02:02.385Z,97955.19
2022-10-05T17:04:59.004Z,97949.09
2022-10-05T17:07:39.494Z,97950.19
2022-10-05T17:10:49.055Z,97948.59
2022-10-05T17:13:23.629Z,97945.69
2022-10-05T17:16:30.242Z,97944.91
2022-10-05T17:19:19.613Z,97950.72
2022-10-05T17:22:02.222Z,97953.41
2022-10-05T17:24:58.453Z,97956.28
2022-10-05T17:27:53.605Z,97957.38
2022-10-05T17:30:38.929Z,97942.78
2022-10-05T17:33:23.435Z,97956.84
2022-10-05T17:36:12.378Z,97951.25
2022-10-05T17:39:13.477Z,97944.63
2022-10-05T17:41:41.131Z,97944.09
2022-10-05T17:44:17.167Z,97953.38
2022-10-05T17:46:51.515Z,97943.28
2022-10-05T17:49:34.302Z,97944.09
2022-10-05T17:52:44.704Z,97944.34
2022-10-05T17:55:35.320Z,97943.78
2022-10-05T17:58:29.078Z,97943.78
2022-10-05T18:01:00.747Z,97940.09
2022-10-05T18:03:51.474Z,97939.03
2022-10-05T18:06:38.845Z,97944.09
2022-10-05T18:09:20.443Z,97946.50
2022-10-05T18:12:19.390Z,97950.50
2022-10-05T18:15:01.520Z,97951.25
2022-10-05T18:18:01.020Z,97947.53
2022-10-05T18:20:34.957Z,97953.06
2022-10-05T18:23:09.359Z,97953.09
2022-10-05T18:26:21.225Z,97949.66
2022-10-05T18:29:14.541Z,97958.63
2022-10-05T18:32:04.536Z,97953.09
2022-10-05T18:35:02.331Z,97958.88
2022-10-05T18:38:02.012Z,97949.84
2022-10-05T18:40:38.451Z,97954.09
2022-10-05T18:43:32.916Z,97946.13
2022-10-05T18:46:16.214Z,97954.31
2022-10-05T18:49:34.867Z,97950.91
2022-10-05T18:52:39.399Z,97949.84
2022-10-05T18:55:38.111Z,97951.16
2022-10-05T18:58:17.275Z,97953.06
2022-10-05T19:01:01.975Z,97956.44
2022-10-05T19:04:03.391Z,97950.91
2022-10-05T19:06:45.465Z,97952.22
2022-10-05T19:09:44.704Z,97958.03
2022-10-05T19:12:41.630Z,97951.16
2022-10-05T19:15:24.911Z,97959.59
2022-10-05T19:18:13.190Z,97958.03
2022-10-05T19:21:12.926Z,97958.53
2022-10-05T19:24:04.776Z,97962.00
2022-10-05T19:26:59.187Z,97966.19
2022-10-05T19:30:12.197Z,97967.72
2022-10-05T19:33:20.077Z,97974.09
2022-10-05T19:35:51.073Z,97969.50
2022-10-05T19:38:39.795Z,97973.91
2022-10-05T19:41:22.780Z,97974.91
2022-10-05T19:44:23.142Z,97972.03
2022-10-05T19:47:15.102Z,97981.47
2022-10-05T19:49:52.705Z,97985.47
2022-10-05T19:52:37.787Z,97984.03
2022-10-05T19:55:24.288Z,97987.63
2022-10-05T19:58:01.955Z,97985.09
2022-10-05T20:00:31.680Z,97987.63
2022-10-05T20:03:27.708Z,97983.34
2022-10-05T20:05:57.762Z,97988.00
2022-10-05T20:08:27.518Z,97987.72
2022-10-05T20:11:09.576Z,97994.22
2022-10-05T20:13:41.800Z,97998.75
2022-10-05T20:16:35.845Z,97995.59
2022-10-05T20:19:50.763Z,97983.88
2022-10-05T20:22:39.692Z,97989.75
2022-10-05T20:25:19.904Z,97986.09
2022-10-05T20:27:51.206Z,97989.75
2022-10-05T20:30:22.019Z,97988.69
2022-10-05T20:32:57.660Z,97998.22
2022-10-05T20:35:28.871Z,97993.91
2022-10-05T20:37:59.558Z,97987.97
2022-10-05T20:40:29.314Z,97988.13
2022-10-05T20:42:58.263Z,97990.28
2022-10-05T20:45:25.837Z,97986.34
2022-10-05T20:47:53.055Z,97987.00
2022-10-05T20:50:22.241Z,97986.81
2022-10-05T20:52:49.747Z,97980.94
2022-10-05T20:55:17.224Z,97985.66
2022-10-05T20:57:46.222Z,97981.97
2022-10-05T21:00:14.228Z,97975.97
2022-10-05T21:02:41.492Z,97990.53
2022-10-05T21:05:09.596Z,97988.44
2022-10-05T21:07:36.920Z,97993.19
2022-10-05T21:10:04.783Z,97981.41
2022-10-05T21:12:37.677Z,97988.22
2022-10-05T21:15:06.765Z,97979.47
2022-10-05T21:17:34.733Z,97987.63
2022-10-05T21:20:02.123Z,97988.66
2022-10-05T21:22:29.545Z,97983.41
2022-10-05T21:24:56.718Z,97989.69
2022-10-05T21:27:24.671Z,97988.91
2022-10-05T21:29:52.281Z,97995.03
2022-10-05T21:32:19.732Z,97998.19
2022-10-05T21:34:46.992Z,97999.41
2022-10-05T21:37:15.521Z,97991.91
2022-10-05T21:39:42.783Z,97996.72
2022-10-05T21:42:10.008Z,97994.13
2022-10-05T21:44:37.248Z,97999.19
2022-10-05T21:47:06.931Z,97990.94
2022-10-05T21:49:35.448Z,97999.72
2022-10-05T21:52:04.572Z,97997.31
2022-10-05T21:54:33.751Z,97990.75
2022-10-05T21:57:01.475Z,97996.03
2022-10-05T21:59:32.650Z,98005.28
2022-10-05T22:02:00.096Z,98006.91
2022-10-05T22:04:27.431Z,98008.16
2022-10-05T22:06:55.915Z,98017.69
2022-10-05T22:09:23.641Z,98012.94
2022-10-05T22:11:51.647Z,98010.31
2022-10-05T22:14:18.903Z,98002.09
2022-10-05T22:16:46.232Z,97998.63
2022-10-05T22:19:19.154Z,97996.47
2022-10-05T22:21:46.380Z,98004.94
2022-10-05T22:24:13.732Z,98007.13
2022-10-05T22:26:44.964Z,98011.56
2022-10-05T22:29:12.766Z,98006.19
2022-10-05T22:31:40.317Z,98003.78
2022-10-05T22:34:07.596Z,98011.38
2022-10-05T22:36:36.429Z,98008.19
2022-10-05T22:39:04.484Z,98007.94
2022-10-05T22:41:31.693Z,98014.22
2022-10-05T22:43:59.486Z,98020.00
2022-10-05T22:46:26.887Z,98022.88
2022-10-05T22:48:54.296Z,98025.22
2022-10-05T22:51:21.495Z,98027.31
2022-10-05T22:53:48.754Z,98036.81
2022-10-05T22:56:16.189Z,98035.44
2022-10-05T22:58:44.718Z,98036.59
2022-10-05T23:01:17.728Z,98037.53
2022-10-05T23:03:45.557Z,98045.84
2022-10-05T23:06:20.081Z,98033.31
2022-10-05T23:08:47.587Z,98048.44
2022-10-05T23:11:27.752Z,98053.09
2022-10-05T23:13:57.060Z,98045.13
2022-10-05T23:16:26.991Z,98048.72
2022-10-05T23:18:55.487Z,98041.88
2022-10-05T23:21:25.286Z,98051.06
2022-10-05T23:23:52.766Z,98046.56
2022-10-05T23:26:23.895Z,98055.44
2022-10-05T23:28:51.646Z,98058.38
2022-10-05T23:31:30.163Z,98061.50
2022-10-05T23:33:57.475Z,98060.94
2022-10-05T23:36:31.360Z,98065.81
2022-10-05T23:39:00.061Z,98059.28
2022-10-05T23:41:27.633Z,98064.31
2022-10-05T23:43:55.305Z,98068.00
2022-10-05T23:46:22.901Z,98065.31
2022-10-05T23:48:50.446Z,98069.81
2022-10-05T23:51:18.088Z,98079.63
2022-10-05T23:53:45.591Z,98074.34
2022-10-05T23:56:13.254Z,98075.91
2022-10-05T23:58:41.157Z,98085.22
